createdAt,value
2022-12-16T00:01:40.407Z,73.72
2022-12-16T00:04:08.075Z,73.65
2022-12-16T00:06:36.364Z,73.57
2022-12-16T00:09:04.032Z,73.42
2022-12-16T00:11:31.986Z,73.43
2022-12-16T00:13:59.977Z,73.57
2022-12-16T00:16:28.273Z,73.69
2022-12-16T00:18:55.948Z,73.85
2022-12-16T00:21:25.284Z,73.93
2022-12-16T00:23:52.665Z,73.89
2022-12-16T00:26:20.358Z,74.01
2022-12-16T00:28:48.326Z,74.17
2022-12-16T00:31:15.934Z,74.75
2022-12-16T00:33:43.502Z,74.67
2022-12-16T00:36:11.135Z,74.82
2022-12-16T00:38:38.898Z,74.93
2022-12-16T00:41:07.616Z,74.93
2022-12-16T00:43:36.269Z,74.65
2022-12-16T00:46:04.308Z,74.69
2022-12-16T00:48:32.062Z,74.81
2022-12-16T00:50:59.805Z,74.64
2022-12-16T00:53:27.714Z,74.54
2022-12-16T00:56:11.254Z,74.55
2022-12-16T00:58:38.858Z,74.47
2022-12-16T01:01:07.132Z,74.54
2022-12-16T01:03:35.972Z,74.55
2022-12-16T01:06:14.015Z,74.47
2022-12-16T01:08:47.096Z,74.48
2022-12-16T01:11:17.483Z,74.67
2022-12-16T01:13:46.524Z,74.78
2022-12-16T01:16:14.890Z,74.76
2022-12-16T01:18:42.565Z,74.80
2022-12-16T01:21:14.142Z,74.95
2022-12-16T01:23:42.473Z,75.02
2022-12-16T01:26:15.146Z,75.14
2022-12-16T01:28:42.802Z,75.25
2022-12-16T01:31:12.017Z,75.33
2022-12-16T01:33:40.062Z,75.49
2022-12-16T01:36:09.193Z,75.43
2022-12-16T01:38:37.470Z,75.44
2022-12-16T01:41:05.903Z,75.47
2022-12-16T01:43:37.348Z,75.45
2022-12-16T01:46:21.036Z,75.44
2022-12-16T01:49:03.211Z,75.41
2022-12-16T01:51:40.686Z,75.30
2022-12-16T01:54:15.949Z,75.31
2022-12-16T01:56:53.085Z,75.15
2022-12-16T01:59:24.853Z,75.12
2022-12-16T02:01:53.415Z,75.11
2022-12-16T02:04:21.833Z,75.07
2022-12-16T02:06:49.883Z,75.09
2022-12-16T02:09:21.450Z,75.03
2022-12-16T02:12:07.079Z,75.06
2022-12-16T02:15:20.172Z,75.23
2022-12-16T02:18:13.954Z,75.30
2022-12-16T02:21:08.669Z,75.19
2022-12-16T02:24:03.221Z,75.28
2022-12-16T02:27:24.661Z,75.48
2022-12-16T02:30:44.424Z,75.61
2022-12-16T02:33:37.577Z,75.79
2022-12-16T02:36:38.773Z,75.90
2022-12-16T02:39:24.688Z,76.11
2022-12-16T02:42:24.286Z,76.20
2022-12-16T02:45:14.522Z,76.30
2022-12-16T02:47:41.950Z,76.43
2022-12-16T02:50:30.248Z,76.44
2022-12-16T02:53:00.081Z,76.56
2022-12-16T02:55:50.705Z,76.69
2022-12-16T02:58:46.613Z,76.71
2022-12-16T03:01:29.502Z,76.67
2022-12-16T03:04:22.030Z,76.74
2022-12-16T03:06:53.213Z,76.94
2022-12-16T03:09:25.962Z,77.12
2022-12-16T03:11:56.208Z,77.46
2022-12-16T03:14:27.662Z,77.55
2022-12-16T03:16:56.235Z,77.67
2022-12-16T03:19:26.185Z,77.76
2022-12-16T03:22:13.682Z,78.00
2022-12-16T03:24:42.660Z,78.18
2022-12-16T03:27:18.287Z,78.09
2022-12-16T03:30:03.040Z,78.35
2022-12-16T03:32:40.885Z,78.38
2022-12-16T03:35:35.240Z,78.51
2022-12-16T03:38:06.830Z,78.51
2022-12-16T03:40:36.049Z,78.56
2022-12-16T03:43:06.290Z,78.41
2022-12-16T03:45:40.535Z,78.29
2022-12-16T03:48:14.361Z,78.19
2022-12-16T03:50:42.689Z,78.15
2022-12-16T03:53:13.556Z,77.78
2022-12-16T03:55:42.103Z,78.06
2022-12-16T03:58:13.093Z,77.99
2022-12-16T04:00:41.252Z,78.00
2022-12-16T04:03:09.895Z,77.94
2022-12-16T04:05:39.063Z,77.78
2022-12-16T04:08:07.488Z,77.63
2022-12-16T04:10:54.254Z,77.64
2022-12-16T04:13:43.563Z,77.72
2022-12-16T04:16:35.656Z,77.74
2022-12-16T04:19:22.949Z,77.92
2022-12-16T04:22:09.565Z,78.00
2022-12-16T04:24:37.926Z,78.14
2022-12-16T04:27:15.289Z,78.10
2022-12-16T04:29:39.834Z,78.14
2022-12-16T04:32:07.518Z,78.08
2022-12-16T04:34:35.144Z,78.12
2022-12-16T04:37:22.400Z,78.01
2022-12-16T04:40:08.639Z,77.95
2022-12-16T04:42:54.634Z,78.00
2022-12-16T04:45:40.445Z,78.07
2022-12-16T04:48:26.457Z,77.99
2022-12-16T04:51:12.437Z,77.88
2022-12-16T04:53:58.690Z,77.89
2022-12-16T04:56:44.820Z,77.57
2022-12-16T04:59:30.725Z,77.64
2022-12-16T05:02:17.143Z,78.12
2022-12-16T05:04:49.374Z,78.37
2022-12-16T05:07:38.544Z,78.62
2022-12-16T05:10:25.470Z,78.57
2022-12-16T05:13:14.869Z,78.71
2022-12-16T05:16:00.864Z,78.72
2022-12-16T05:18:47.099Z,78.52
2022-12-16T05:21:33.408Z,78.22
2022-12-16T05:24:19.150Z,78.11
2022-12-16T05:27:05.476Z,78.13
2022-12-16T05:29:51.618Z,77.97
2022-12-16T05:32:37.428Z,77.86
2022-12-16T05:35:24.543Z,77.69
2022-12-16T05:38:10.920Z,77.67
2022-12-16T05:40:57.182Z,77.66
2022-12-16T05:43:43.835Z,77.30
2022-12-16T05:46:30.172Z,77.31
2022-12-16T05:49:16.502Z,77.10
2022-12-16T05:52:02.531Z,77.39
2022-12-16T05:54:49.255Z,77.48
2022-12-16T05:57:35.643Z,77.47
2022-12-16T06:00:09.336Z,77.40
2022-12-16T06:02:58.291Z,77.42
2022-12-16T06:05:30.703Z,77.47
2022-12-16T06:08:16.645Z,77.71
2022-12-16T06:11:02.960Z,77.77
2022-12-16T06:13:49.077Z,78.02
2022-12-16T06:16:36.312Z,78.50
2022-12-16T06:19:22.378Z,78.82
2022-12-16T06:22:08.261Z,78.88
2022-12-16T06:24:55.213Z,79.06
2022-12-16T06:27:41.179Z,79.11
2022-12-16T06:30:29.137Z,79.18
2022-12-16T06:33:15.539Z,79.26
2022-12-16T06:36:01.700Z,79.23
2022-12-16T06:38:47.857Z,79.13
2022-12-16T06:41:34.450Z,78.96
2022-12-16T06:44:20.973Z,78.87
2022-12-16T06:47:07.793Z,78.68
2022-12-16T06:49:55.464Z,78.77
2022-12-16T06:52:41.501Z,78.75
2022-12-16T06:55:27.318Z,78.90
2022-12-16T06:58:10.233Z,79.32
2022-12-16T07:00:43.019Z,79.68
2022-12-16T07:03:34.061Z,80.46
2022-12-16T07:06:17.320Z,80.40
2022-12-16T07:09:03.824Z,81.13
2022-12-16T07:11:50.629Z,81.85
2022-12-16T07:14:37.024Z,81.92
2022-12-16T07:17:22.801Z,82.06
2022-12-16T07:20:09.163Z,82.41
2022-12-16T07:23:03.744Z,82.10
2022-12-16T07:25:42.945Z,82.33
2022-12-16T07:28:29.020Z,82.21
2022-12-16T07:31:14.858Z,82.09
2022-12-16T07:34:01.170Z,82.01
2022-12-16T07:36:47.544Z,81.83
2022-12-16T07:39:33.748Z,81.62
2022-12-16T07:42:19.965Z,81.45
2022-12-16T07:45:06.125Z,81.37
2022-12-16T07:47:52.425Z,81.50
2022-12-16T07:50:40.248Z,81.34
2022-12-16T07:53:31.238Z,81.43
2022-12-16T07:56:15.735Z,81.54
2022-12-16T07:59:01.827Z,81.56
2022-12-16T08:01:48.305Z,81.56
2022-12-16T08:04:34.630Z,81.61
2022-12-16T08:07:20.850Z,81.69
2022-12-16T08:10:07.156Z,82.06
2022-12-16T08:12:53.198Z,82.11
2022-12-16T08:15:39.149Z,82.37
2022-12-16T08:18:25.743Z,82.59
2022-12-16T08:21:07.346Z,82.81
2022-12-16T08:23:54.810Z,83.12
2022-12-16T08:26:30.822Z,82.95
2022-12-16T08:32:04.868Z,82.99
2022-12-16T08:34:50.957Z,82.91
2022-12-16T08:37:37.069Z,82.67
2022-12-16T08:40:39.671Z,82.47
2022-12-16T08:43:15.514Z,82.23
2022-12-16T08:46:01.978Z,82.03
2022-12-16T08:48:48.332Z,81.88
2022-12-16T08:51:34.835Z,81.60
2022-12-16T08:54:21.033Z,81.36
2022-12-16T08:57:07.358Z,81.18
2022-12-16T08:59:53.505Z,81.26
2022-12-16T09:02:40.552Z,81.22
2022-12-16T09:05:27.217Z,81.30
2022-12-16T09:08:19.335Z,81.27
2022-12-16T09:11:05.527Z,81.30
2022-12-16T09:13:51.610Z,81.32
2022-12-16T09:16:37.340Z,81.57
2022-12-16T09:19:23.545Z,81.63
2022-12-16T09:22:09.606Z,82.02
2022-12-16T09:24:56.056Z,82.42
2022-12-16T09:27:42.209Z,82.22
2022-12-16T09:30:29.500Z,82.21
2022-12-16T09:33:15.431Z,82.19
2022-12-16T09:36:01.898Z,82.04
2022-12-16T09:38:48.042Z,82.06
2022-12-16T09:41:45.746Z,81.88
2022-12-16T09:44:57.280Z,81.68
2022-12-16T09:48:09.412Z,81.31
2022-12-16T09:50:59.331Z,81.02
2022-12-16T09:53:49.995Z,81.05
2022-12-16T09:56:41.446Z,80.81
2022-12-16T09:59:35.483Z,80.86
2022-12-16T10:02:24.237Z,80.75
2022-12-16T10:05:10.616Z,80.72
2022-12-16T10:08:00.731Z,80.53
2022-12-16T10:11:00.523Z,80.71
2022-12-16T10:14:00.997Z,80.84
2022-12-16T10:17:00.938Z,80.90
2022-12-16T10:20:17.099Z,80.81
2022-12-16T10:23:17.634Z,80.84
2022-12-16T10:26:12.071Z,80.98
2022-12-16T10:29:05.606Z,81.20
2022-12-16T10:31:55.138Z,81.34
2022-12-16T10:34:49.357Z,81.12
2022-12-16T10:37:55.435Z,81.23
2022-12-16T10:40:45.396Z,81.22
2022-12-16T10:43:54.278Z,81.12
2022-12-16T10:46:46.673Z,80.85
2022-12-16T10:49:34.363Z,80.65
2022-12-16T10:52:21.559Z,80.26
2022-12-16T10:55:33.049Z,80.28
2022-12-16T10:58:42.850Z,79.98
2022-12-16T11:01:46.047Z,79.75
2022-12-16T11:04:51.725Z,79.38
2022-12-16T11:07:58.811Z,79.40
2022-12-16T11:10:56.022Z,79.35
2022-12-16T11:13:36.933Z,79.42
2022-12-16T11:16:47.334Z,79.23
2022-12-16T11:19:47.525Z,79.30
2022-12-16T11:22:39.289Z,79.42
2022-12-16T11:25:35.660Z,79.52
2022-12-16T11:28:34.319Z,79.71
2022-12-16T11:31:28.871Z,79.85
2022-12-16T11:34:18.537Z,80.27
2022-12-16T11:37:09.362Z,80.48
2022-12-16T11:39:56.261Z,80.79
2022-12-16T11:42:46.461Z,80.78
2022-12-16T11:45:37.134Z,80.92
2022-12-16T11:48:52.451Z,80.96
2022-12-16T11:51:41.184Z,80.89
2022-12-16T11:54:45.023Z,80.58
2022-12-16T11:58:03.608Z,80.14
2022-12-16T12:00:52.053Z,80.12
2022-12-16T12:03:43.041Z,79.56
2022-12-16T12:06:52.959Z,79.60
2022-12-16T12:09:43.472Z,79.62
2022-12-16T12:12:56.273Z,79.61
2022-12-16T12:15:57.109Z,79.54
2022-12-16T12:19:06.813Z,79.28
2022-12-16T12:22:19.537Z,79.10
2022-12-16T12:25:20.267Z,79.10
2022-12-16T12:28:39.605Z,79.19
2022-12-16T12:31:47.993Z,79.29
2022-12-16T12:34:42.980Z,79.46
2022-12-16T12:37:52.546Z,79.70
2022-12-16T12:40:56.217Z,79.76
2022-12-16T12:44:07.018Z,79.85
2022-12-16T12:47:17.326Z,79.96
2022-12-16T12:50:15.195Z,80.08
2022-12-16T12:53:51.846Z,80.21
2022-12-16T12:56:34.067Z,80.16
2022-12-16T12:59:25.560Z,79.91
2022-12-16T13:02:14.231Z,79.30
2022-12-16T13:05:01.650Z,79.11
2022-12-16T13:07:50.336Z,78.89
2022-12-16T13:10:47.651Z,78.73
2022-12-16T13:13:39.253Z,78.53
2022-12-16T13:16:31.015Z,78.22
2022-12-16T13:19:51.625Z,78.18
2022-12-16T13:22:52.868Z,78.10
2022-12-16T13:26:11.125Z,77.93
2022-12-16T13:29:00.268Z,77.96
2022-12-16T13:31:48.686Z,78.02
2022-12-16T13:34:39.387Z,78.16
2022-12-16T13:37:39.494Z,78.24
2022-12-16T13:40:33.953Z,78.33
2022-12-16T13:43:31.221Z,78.44
2022-12-16T13:46:25.358Z,78.48
2022-12-16T13:49:11.485Z,78.78
2022-12-16T13:52:02.836Z,78.96
2022-12-16T13:55:09.033Z,79.09
2022-12-16T13:58:01.605Z,79.21
2022-12-16T14:00:50.740Z,79.49
2022-12-16T14:04:02.150Z,79.48
2022-12-16T14:06:52.873Z,79.50
2022-12-16T14:10:02.945Z,79.50
2022-12-16T14:13:16.321Z,79.27
2022-12-16T14:16:14.557Z,78.91
2022-12-16T14:19:25.035Z,78.49
2022-12-16T14:22:33.155Z,78.33
2022-12-16T14:25:36.970Z,78.31
2022-12-16T14:28:48.361Z,78.09
2022-12-16T14:31:52.697Z,77.96
2022-12-16T14:34:44.100Z,77.97
2022-12-16T14:37:40.694Z,77.98
2022-12-16T14:40:39.810Z,77.98
2022-12-16T14:43:36.943Z,78.04
2022-12-16T14:46:25.566Z,78.11
2022-12-16T14:49:11.695Z,78.10
2022-12-16T14:52:06.028Z,78.14
2022-12-16T14:54:56.638Z,78.22
2022-12-16T14:57:45.671Z,78.29
2022-12-16T15:00:41.587Z,78.37
2022-12-16T15:03:54.348Z,78.61
2022-12-16T15:06:50.011Z,78.74
2022-12-16T15:09:39.153Z,79.03
2022-12-16T15:12:29.140Z,79.14
2022-12-16T15:15:16.159Z,79.39
2022-12-16T15:18:14.713Z,79.53
2022-12-16T15:21:11.319Z,79.41
2022-12-16T15:24:01.238Z,79.44
2022-12-16T15:26:51.237Z,79.34
2022-12-16T15:30:00.236Z,79.12
2022-12-16T15:32:53.049Z,78.80
2022-12-16T15:35:51.390Z,78.64
2022-12-16T15:38:48.401Z,78.46
2022-12-16T15:41:51.119Z,78.24
2022-12-16T15:44:46.154Z,78.18
2022-12-16T15:47:52.365Z,78.11
2022-12-16T15:50:42.731Z,78.22
2022-12-16T15:53:56.652Z,78.15
2022-12-16T15:56:47.571Z,78.24
2022-12-16T15:59:47.467Z,78.30
2022-12-16T16:02:40.716Z,78.41
2022-12-16T16:05:42.669Z,78.48
2022-12-16T16:08:29.824Z,78.56
2022-12-16T16:11:15.459Z,78.69
2022-12-16T16:14:07.188Z,78.76
2022-12-16T16:16:48.788Z,78.85
2022-12-16T16:19:40.261Z,79.10
2022-12-16T16:22:36.229Z,79.40
2022-12-16T16:25:24.076Z,79.60
2022-12-16T16:28:10.016Z,79.79
2022-12-16T16:30:55.988Z,79.68
2022-12-16T16:33:42.438Z,79.78
2022-12-16T16:36:34.161Z,79.89
2022-12-16T16:39:20.231Z,79.77
2022-12-16T16:42:06.321Z,79.70
2022-12-16T16:44:52.564Z,79.47
2022-12-16T16:47:38.813Z,79.18
2022-12-16T16:50:26.870Z,78.78
2022-12-16T16:53:13.337Z,78.69
2022-12-16T16:55:59.531Z,78.65
2022-12-16T16:58:48.318Z,78.44
2022-12-16T17:01:37.059Z,78.33
2022-12-16T17:04:23.517Z,78.29
2022-12-16T17:07:09.791Z,78.29
2022-12-16T17:09:56.401Z,78.36
2022-12-16T17:12:47.304Z,78.41
2022-12-16T17:15:50.610Z,78.42
2022-12-16T17:18:43.822Z,78.46
2022-12-16T17:21:26.214Z,78.54
2022-12-16T17:24:12.565Z,78.65
2022-12-16T17:27:02.108Z,78.78
2022-12-16T17:29:48.883Z,78.96
2022-12-16T17:32:35.056Z,79.19
2022-12-16T17:35:21.660Z,79.44
2022-12-16T17:38:07.273Z,79.61
2022-12-16T17:40:53.682Z,79.69
2022-12-16T17:43:39.842Z,79.84
2022-12-16T17:46:29.582Z,79.80
2022-12-16T17:49:17.409Z,79.60
2022-12-16T17:52:04.682Z,79.38
2022-12-16T17:54:50.958Z,79.26
2022-12-16T17:57:37.215Z,78.99
2022-12-16T18:00:24.781Z,78.75
2022-12-16T18:03:11.133Z,78.64
2022-12-16T18:05:57.924Z,78.43
2022-12-16T18:08:44.722Z,78.35
2022-12-16T18:11:33.471Z,78.42
2022-12-16T18:14:18.424Z,78.40
2022-12-16T18:17:04.789Z,78.47
2022-12-16T18:19:51.240Z,78.64
2022-12-16T18:22:37.496Z,78.77
2022-12-16T18:25:24.965Z,78.87
2022-12-16T18:28:11.203Z,79.02
2022-12-16T18:30:57.887Z,79.17
2022-12-16T18:33:44.283Z,79.27
2022-12-16T18:36:30.314Z,79.41
2022-12-16T18:39:16.711Z,79.49
2022-12-16T18:42:05.543Z,79.71
2022-12-16T18:44:54.979Z,80.07
2022-12-16T18:47:39.638Z,80.39
2022-12-16T18:50:30.537Z,80.86
2022-12-16T18:53:15.782Z,80.85
2022-12-16T18:56:01.918Z,81.13
2022-12-16T18:58:51.980Z,81.00
2022-12-16T19:01:36.195Z,81.11
2022-12-16T19:04:22.333Z,81.53
2022-12-16T19:07:08.072Z,81.48
2022-12-16T19:09:53.991Z,81.33
2022-12-16T19:12:40.318Z,81.19
2022-12-16T19:15:27.503Z,81.17
2022-12-16T19:18:13.983Z,81.08
2022-12-16T19:21:00.049Z,81.08
2022-12-16T19:23:46.275Z,81.06
2022-12-16T19:26:32.050Z,81.03
2022-12-16T19:29:18.296Z,80.94
2022-12-16T19:32:04.486Z,81.05
2022-12-16T19:34:50.455Z,80.98
2022-12-16T19:37:36.282Z,81.04
2022-12-16T19:40:24.737Z,81.15
2022-12-16T19:43:10.688Z,81.44
2022-12-16T19:45:57.004Z,81.58
2022-12-16T19:48:43.061Z,81.88
2022-12-16T19:51:29.818Z,82.10
2022-12-16T19:54:16.123Z,82.26
2022-12-16T19:57:01.902Z,82.53
2022-12-16T19:59:48.379Z,82.82
2022-12-16T20:02:34.867Z,82.72
2022-12-16T20:05:21.494Z,82.52
2022-12-16T20:08:07.933Z,83.09
2022-12-16T20:10:56.252Z,83.09
2022-12-16T20:13:42.567Z,82.63
2022-12-16T20:16:31.409Z,82.63
2022-12-16T20:19:17.546Z,82.61
2022-12-16T20:22:06.827Z,82.93
2022-12-16T20:24:51.455Z,83.11
2022-12-16T20:27:38.102Z,83.12
2022-12-16T20:30:26.913Z,83.23
2022-12-16T20:33:13.855Z,83.30
2022-12-16T20:35:59.739Z,84.77
2022-12-16T20:38:46.321Z,84.51
2022-12-16T20:41:31.954Z,84.53
2022-12-16T20:44:17.726Z,84.75
2022-12-16T20:47:04.211Z,85.06
2022-12-16T20:49:50.074Z,85.34
2022-12-16T20:52:36.168Z,85.41
2022-12-16T20:55:22.745Z,85.61
2022-12-16T20:58:09.326Z,85.80
2022-12-16T21:00:56.369Z,85.80
2022-12-16T21:03:43.081Z,85.57
2022-12-16T21:06:29.639Z,85.53
2022-12-16T21:09:16.043Z,85.24
2022-12-16T21:12:01.737Z,85.80
2022-12-16T21:14:47.493Z,86.02
2022-12-16T21:17:33.564Z,86.12
2022-12-16T21:20:19.235Z,86.14
2022-12-16T21:23:05.073Z,86.24
2022-12-16T21:25:51.240Z,86.08
2022-12-16T21:28:37.372Z,86.78
2022-12-16T21:31:23.750Z,87.00
2022-12-16T21:34:11.576Z,86.88
2022-12-16T21:36:57.707Z,86.78
2022-12-16T21:39:45.264Z,86.59
2022-12-16T21:42:35.386Z,86.63
2022-12-16T21:45:19.089Z,87.02
2022-12-16T21:48:05.042Z,87.03
2022-12-16T21:50:51.824Z,87.34
2022-12-16T21:53:37.980Z,87.54
2022-12-16T21:56:26.805Z,87.56
2022-12-16T21:59:12.764Z,87.29
2022-12-16T22:01:59.394Z,87.26
2022-12-16T22:04:45.238Z,87.16
2022-12-16T22:07:31.132Z,86.60
2022-12-16T22:10:17.284Z,86.20
2022-12-16T22:13:03.208Z,85.34
2022-12-16T22:15:49.034Z,84.92
2022-12-16T22:18:36.795Z,84.61
2022-12-16T22:21:24.495Z,84.75
2022-12-16T22:24:10.644Z,85.05
2022-12-16T22:26:56.465Z,85.26
2022-12-16T22:29:42.939Z,85.27
2022-12-16T22:32:29.271Z,85.40
2022-12-16T22:35:15.616Z,85.62
2022-12-16T22:38:02.141Z,85.59
2022-12-16T22:40:47.931Z,85.84
2022-12-16T22:43:33.905Z,86.02
2022-12-16T22:46:22.247Z,86.27
2022-12-16T22:49:08.276Z,86.52
2022-12-16T22:51:54.434Z,86.60
2022-12-16T22:54:42.019Z,86.56
2022-12-16T22:57:27.688Z,86.75
2022-12-16T23:00:14.329Z,86.84
2022-12-16T23:03:00.955Z,86.69
2022-12-16T23:05:47.302Z,86.54
2022-12-16T23:08:33.647Z,86.48
2022-12-16T23:11:19.831Z,86.34
2022-12-16T23:14:06.026Z,85.90
2022-12-16T23:16:52.235Z,85.50
2022-12-16T23:19:39.332Z,85.51
2022-12-16T23:22:25.083Z,85.57
2022-12-16T23:24:57.432Z,85.54
2022-12-16T23:27:43.908Z,85.50
2022-12-16T23:30:30.640Z,85.45
2022-12-16T23:33:19.772Z,85.37
2022-12-16T23:36:06.156Z,85.39
2022-12-16T23:38:52.251Z,85.77
2022-12-16T23:41:39.598Z,86.51
2022-12-16T23:44:26.174Z,86.76
2022-12-16T23:47:12.173Z,86.99
2022-12-16T23:49:58.249Z,87.23
2022-12-16T23:52:44.526Z,87.47
2022-12-16T23:55:30.465Z,87.67
2022-12-16T23:58:22.457Z,87.62
